Time;durP1;ratioP1;P1;durP2;ratioP2;P2;SDS_P1;SDS_P2;PMS_P1;PMS_P2;Temp;Humidity;BMP_temperature;BMP_pressure;BME280_temperature;BME280_humidity;BME280_pressure;Samples;Min_cycle;Max_cycle;Signal;HPM_P1;HPM_P2
2021/01/03 00:02:03;;;;;;;21.77;13.25;;;;;;;1.29;77.30;96484.74;1787171;80;21120;-89
2021/01/03 00:04:30;;;;;;;20.32;11.45;;;;;;;1.36;77.46;96484.12;1787074;80;21147;-89
2021/01/03 00:06:57;;;;;;;20.75;11.83;;;;;;;1.47;77.52;96484.16;1787013;80;21507;-89
2021/01/03 00:09:26;;;;;;;18.67;9.90;;;;;;;1.56;77.43;96486.47;1787288;80;21499;-88
2021/01/03 00:11:54;;;;;;;17.15;9.58;;;;;;;1.68;77.32;96485.45;1787195;80;21147;-88
2021/01/03 00:14:23;;;;;;;17.17;9.83;;;;;;;1.74;77.14;96480.64;1787186;80;21127;-89
2021/01/03 00:16:57;;;;;;;18.05;9.58;;;;;;;1.82;76.96;96480.81;1787104;80;21155;-89
2021/01/03 00:19:24;;;;;;;14.53;8.20;;;;;;;1.86;76.80;96481.17;1787010;80;21140;-89
2021/01/03 00:21:52;;;;;;;15.95;8.95;;;;;;;1.84;76.67;96476.69;1786986;80;21136;-88
2021/01/03 00:24:20;;;;;;;16.48;8.28;;;;;;;1.76;76.50;96481.72;1787070;80;21159;-89
2021/01/03 00:26:47;;;;;;;13.30;7.67;;;;;;;1.70;76.40;96472.98;1787305;80;21508;-88
2021/01/03 00:29:18;;;;;;;14.63;6.30;;;;;;;1.64;76.32;96469.14;1787109;80;21164;-89
2021/01/03 00:31:49;;;;;;;8.33;4.35;;;;;;;1.61;76.30;96473.52;1787363;80;21088;-88
2021/01/03 00:34:20;;;;;;;14.58;8.60;;;;;;;1.42;76.28;96474.11;1787200;80;21144;-88
2021/01/03 00:36:49;;;;;;;19.67;9.38;;;;;;;1.28;76.54;96480.55;1787533;80;21115;-88
2021/01/03 00:39:16;;;;;;;17.48;9.63;;;;;;;1.29;76.96;96486.05;1787212;80;21168;-88
2021/01/03 00:41:49;;;;;;;18.77;10.78;;;;;;;1.42;77.19;96472.80;1787199;80;21112;-89
2021/01/03 00:44:17;;;;;;;17.50;8.13;;;;;;;1.48;77.13;96467.98;1787102;80;21148;-89
2021/01/03 00:46:45;;;;;;;13.15;6.50;;;;;;;1.45;76.90;96465.82;1787260;80;21467;-88
2021/01/03 00:49:13;;;;;;;14.50;6.53;;;;;;;1.34;76.82;96461.36;1786650;80;21125;-88
2021/01/03 00:51:40;;;;;;;15.43;6.53;;;;;;;1.28;77.00;96461.75;1787209;80;21143;-88
2021/01/03 00:54:07;;;;;;;11.48;7.08;;;;;;;1.26;77.08;96456.44;1787260;80;21147;-88
2021/01/03 00:56:34;;;;;;;10.68;5.90;;;;;;;1.24;77.09;96455.87;1787308;80;21108;-88
2021/01/03 00:59:02;;;;;;;14.98;9.10;;;;;;;1.21;77.16;96449.28;1787184;80;21143;-89
2021/01/03 01:01:29;;;;;;;14.98;7.47;;;;;;;1.17;77.25;96451.55;1787225;80;21151;-88
2021/01/03 01:03:57;;;;;;;12.78;6.53;;;;;;;1.13;77.24;96456.94;1787161;80;21535;-88
2021/01/03 01:06:24;;;;;;;12.85;7.87;;;;;;;1.08;77.27;96462.01;1787175;80;21139;-88
2021/01/03 01:08:51;;;;;;;13.03;6.70;;;;;;;1.09;77.43;96460.19;1787169;80;21166;-88
2021/01/03 01:11:19;;;;;;;11.63;6.10;;;;;;;1.13;77.46;96453.02;1787316;80;21135;-88
2021/01/03 01:13:47;;;;;;;8.45;4.37;;;;;;;1.11;77.27;96461.55;1787154;80;21141;-88
2021/01/03 01:16:14;;;;;;;9.25;3.85;;;;;;;1.09;77.25;96454.46;1787401;80;21147;-88
2021/01/03 01:18:41;;;;;;;7.28;3.77;;;;;;;1.09;77.25;96439.31;1787073;80;21135;-88
2021/01/03 01:21:08;;;;;;;9.80;4.65;;;;;;;1.07;77.21;96436.92;1786686;80;21476;-88
2021/01/03 01:23:35;;;;;;;9.08;5.03;;;;;;;1.06;77.19;96434.03;1787091;80;21120;-88
2021/01/03 01:26:02;;;;;;;10.20;4.80;;;;;;;1.05;77.24;96428.52;1787305;80;21134;-88
2021/01/03 01:28:30;;;;;;;7.15;4.25;;;;;;;1.03;77.21;96423.24;1787158;80;21148;-89
2021/01/03 01:30:58;;;;;;;8.68;4.58;;;;;;;1.03;77.35;96427.95;1787155;80;21503;-88
2021/01/03 01:33:25;;;;;;;6.30;3.30;;;;;;;1.03;77.33;96434.48;1787171;80;21503;-89
2021/01/03 01:35:52;;;;;;;11.45;4.87;;;;;;;1.04;77.19;96432.66;1787207;80;21164;-88
2021/01/03 01:38:19;;;;;;;7.22;4.15;;;;;;;1.04;77.21;96438.67;1787100;80;21173;-88
2021/01/03 01:40:47;;;;;;;6.33;3.62;;;;;;;1.05;77.25;96435.05;1787469;80;21135;-88
2021/01/03 01:43:17;;;;;;;8.08;3.75;;;;;;;1.05;77.21;96442.08;1787159;80;21156;-88
2021/01/03 01:45:47;;;;;;;10.28;4.90;;;;;;;1.05;77.21;96435.05;1787181;80;21144;-88
2021/01/03 01:48:25;;;;;;;7.80;4.00;;;;;;;1.12;77.48;96435.73;1787263;80;21177;-88
2021/01/03 01:51:06;;;;;;;8.35;4.10;;;;;;;1.16;77.43;96429.59;1787124;80;21139;-89
2021/01/03 01:53:59;;;;;;;9.55;4.95;;;;;;;1.16;77.30;96428.28;1787152;80;21504;-88
2021/01/03 01:56:50;;;;;;;6.37;3.05;;;;;;;1.23;77.56;96427.66;1742052;80;21147;-89
2021/01/03 01:59:54;;;;;;;9.28;4.42;;;;;;;1.29;77.34;96425.48;1787135;80;21120;-88
2021/01/03 02:02:38;;;;;;;8.43;4.65;;;;;;;1.46;77.60;96424.31;1787111;80;21147;-89
2021/01/03 02:05:13;;;;;;;9.00;5.62;;;;;;;1.63;77.44;96423.13;1786236;80;21175;-89
2021/01/03 02:07:51;;;;;;;8.70;5.10;;;;;;;1.72;77.28;96418.66;1787198;80;21136;-88
2021/01/03 02:10:32;;;;;;;7.42;4.60;;;;;;;1.76;77.12;96409.86;1787148;80;21115;-88
2021/01/03 02:13:16;;;;;;;7.83;4.65;;;;;;;1.96;77.00;96404.27;1787443;80;21124;-88
2021/01/03 02:15:43;;;;;;;11.20;5.47;;;;;;;2.13;76.72;96393.94;1787239;80;21519;-88
2021/01/03 02:18:14;;;;;;;12.78;6.17;;;;;;;2.11;76.54;96390.73;1787326;80;21171;-89
2021/01/03 02:20:58;;;;;;;8.30;4.55;;;;;;;2.05;76.37;96386.70;1786812;80;21480;-88
2021/01/03 02:23:30;;;;;;;11.78;5.25;;;;;;;1.96;76.25;96390.69;1787069;80;21167;-88
2021/01/03 02:26:20;;;;;;;10.25;4.87;;;;;;;1.79;76.06;96383.26;1818367;79;22903;-88
2021/01/03 02:28:48;;;;;;;10.32;6.03;;;;;;;1.63;76.22;96383.43;1776677;80;21189;-88
2021/01/03 02:31:20;;;;;;;14.63;8.08;;;;;;;1.52;76.38;96385.52;1752285;82;21152;-87
2021/01/03 02:33:51;;;;;;;12.93;6.60;;;;;;;1.51;76.66;96387.05;1752389;82;21203;-87
2021/01/03 02:36:26;;;;;;;12.93;7.67;;;;;;;1.47;76.75;96385.41;1752383;81;21132;-87
2021/01/03 02:39:01;;;;;;;13.98;7.80;;;;;;;1.46;76.86;96383.83;1752227;81;21323;-88
2021/01/03 02:41:30;;;;;;;14.15;7.95;;;;;;;1.44;77.10;96385.88;1752298;82;21132;-88
2021/01/03 02:43:57;;;;;;;11.95;5.92;;;;;;;1.40;77.04;96395.16;1752192;82;21186;-87
2021/01/03 02:46:24;;;;;;;11.57;5.33;;;;;;;1.38;77.03;96391.98;1752471;81;21163;-88
2021/01/03 02:48:52;;;;;;;9.83;5.72;;;;;;;1.28;76.92;96396.98;1752240;81;21177;-88
2021/01/03 02:51:19;;;;;;;9.68;6.03;;;;;;;1.24;77.15;96394.51;1722463;83;21136;-88
2021/01/03 02:53:46;;;;;;;10.18;5.85;;;;;;;1.37;77.39;96399.02;1692889;83;21152;-88
2021/01/03 02:56:13;;;;;;;10.72;5.45;;;;;;;1.51;77.30;96388.36;1722448;82;21175;-88
2021/01/03 02:58:40;;;;;;;10.70;5.47;;;;;;;1.53;77.17;96375.36;1722367;83;21507;-88
2021/01/03 03:01:06;;;;;;;8.78;4.35;;;;;;;1.61;77.17;96372.93;1763717;81;21139;-88
2021/01/03 03:03:33;;;;;;;9.83;5.25;;;;;;;1.65;77.10;96367.02;1765325;81;21139;-88
2021/01/03 03:06:00;;;;;;;12.50;6.65;;;;;;;1.76;77.12;96363.61;1765292;81;21163;-88
2021/01/03 03:08:27;;;;;;;15.48;7.72;;;;;;;1.91;77.01;96354.50;1765337;81;21159;-88
2021/01/03 03:10:54;;;;;;;10.68;6.10;;;;;;;1.93;76.87;96353.76;1765317;81;21129;-88
2021/01/03 03:13:21;;;;;;;15.58;7.65;;;;;;;1.92;76.52;96354.78;1765310;81;21135;-88
2021/01/03 03:15:48;;;;;;;15.00;7.50;;;;;;;1.90;76.37;96354.23;1765299;81;21135;-88
2021/01/03 03:18:15;;;;;;;14.93;7.35;;;;;;;1.85;76.42;96346.28;1765348;81;21155;-88
2021/01/03 03:20:42;;;;;;;12.60;7.25;;;;;;;1.81;76.48;96330.76;1755407;81;21139;-88
2021/01/03 03:23:09;;;;;;;13.93;8.08;;;;;;;1.73;76.55;96315.73;1752271;82;21139;-88
2021/01/03 03:25:35;;;;;;;12.85;7.12;;;;;;;1.70;76.77;96311.48;1752147;82;21171;-88
2021/01/03 03:28:02;;;;;;;14.15;6.72;;;;;;;1.67;76.92;96313.22;1752461;81;21140;-88
2021/01/03 03:30:29;;;;;;;11.53;6.53;;;;;;;1.65;77.17;96301.69;1752240;82;21516;-88
2021/01/03 03:32:58;;;;;;;10.40;5.58;;;;;;;1.57;77.39;96299.95;1752206;81;21146;-88
2021/01/03 03:35:30;;;;;;;13.38;5.75;;;;;;;1.46;77.70;96296.33;1752111;81;21143;-88
2021/01/03 03:37:58;;;;;;;10.55;5.45;;;;;;;1.42;77.65;96295.20;1751277;81;21161;-88
2021/01/03 03:40:25;;;;;;;11.03;5.85;;;;;;;1.42;77.64;96284.75;1751660;82;21666;-88
2021/01/03 03:42:52;;;;;;;12.20;6.45;;;;;;;1.46;77.58;96302.86;1751637;82;21147;-88
2021/01/03 03:45:20;;;;;;;14.60;6.10;;;;;;;1.48;77.55;96315.17;1751647;82;21524;-88
2021/01/03 03:47:47;;;;;;;12.60;6.22;;;;;;;1.51;77.49;96317.32;1751696;82;21305;-88
2021/01/03 03:50:22;;;;;;;14.07;7.37;;;;;;;1.50;77.48;96314.42;1751489;81;21302;-88
2021/01/03 03:52:50;;;;;;;12.85;6.90;;;;;;;1.48;77.45;96323.01;1751664;81;21108;-89
2021/01/03 03:55:18;;;;;;;16.07;7.50;;;;;;;1.44;77.50;96320.06;1751624;82;21534;-88
2021/01/03 03:57:45;;;;;;;13.28;7.40;;;;;;;1.41;77.55;96324.95;1751734;82;21289;-89
2021/01/03 04:00:18;;;;;;;15.35;8.95;;;;;;;1.44;77.69;96327.90;1751670;81;21301;-88
2021/01/03 04:02:47;;;;;;;13.25;6.97;;;;;;;1.48;77.64;96334.77;1751677;81;21262;-88
2021/01/03 04:05:24;;;;;;;11.25;5.97;;;;;;;1.46;77.76;96337.60;1751733;82;21651;-89
2021/01/03 04:07:51;;;;;;;12.95;7.55;;;;;;;1.43;77.80;96334.14;1751748;82;21282;-88
2021/01/03 04:10:20;;;;;;;14.40;7.10;;;;;;;1.41;77.82;96330.97;1751751;81;21322;-88
2021/01/03 04:12:48;;;;;;;15.80;7.25;;;;;;;1.43;77.85;96338.06;1751641;81;21151;-88
2021/01/03 04:15:18;;;;;;;10.98;5.55;;;;;;;1.40;77.86;96322.03;1751637;81;21273;-88
2021/01/03 04:17:45;;;;;;;10.75;5.92;;;;;;;1.48;77.84;96303.41;1751907;82;21277;-89
2021/01/03 04:20:17;;;;;;;12.73;6.05;;;;;;;1.60;77.67;96279.91;1751509;81;21136;-88
2021/01/03 04:22:46;;;;;;;11.97;6.12;;;;;;;1.61;77.51;96273.65;1751852;82;21266;-88
2021/01/03 04:25:15;;;;;;;10.03;6.30;;;;;;;1.60;77.41;96268.14;1753382;82;21645;-88
2021/01/03 04:27:45;;;;;;;13.45;6.60;;;;;;;1.59;77.34;96280.41;1757539;82;21266;-88
2021/01/03 04:30:15;;;;;;;12.88;6.62;;;;;;;1.46;77.26;96287.97;1757185;81;21155;-88
2021/01/03 04:32:42;;;;;;;13.93;7.67;;;;;;;1.19;77.63;96294.67;1757758;82;21281;-89
2021/01/03 04:35:11;;;;;;;11.93;6.22;;;;;;;1.03;78.15;96294.03;1757221;82;21167;-88
2021/01/03 04:37:38;;;;;;;11.33;5.37;;;;;;;1.03;78.39;96292.22;1757334;82;21148;-88
2021/01/03 04:40:11;;;;;;;13.13;6.03;;;;;;;1.17;78.39;96283.66;1757173;81;21540;-88
2021/01/03 04:42:38;;;;;;;12.95;7.45;;;;;;;1.28;78.20;96280.78;1756638;82;21684;-88
2021/01/03 04:45:29;;;;;;;13.18;6.58;;;;;;;1.13;77.96;96272.09;1757144;82;21175;-89
2021/01/03 04:48:00;;;;;;;14.00;6.30;;;;;;;0.96;78.16;96268.54;1757186;81;21468;-88
2021/01/03 04:50:45;;;;;;;10.25;5.75;;;;;;;0.89;78.27;96267.35;1757002;81;21172;-88
2021/01/03 04:53:51;;;;;;;10.58;5.80;;;;;;;0.98;78.44;96265.98;1757302;82;21132;-89
2021/01/03 04:56:44;;;;;;;10.53;5.67;;;;;;;1.10;78.41;96270.70;1757197;82;21132;-89
2021/01/03 04:59:48;;;;;;;11.73;5.97;;;;;;;1.19;78.31;96267.26;1757515;81;21147;-88
2021/01/03 05:03:02;;;;;;;15.68;6.70;;;;;;;1.22;78.21;96265.49;1757144;82;21187;-89
2021/01/03 05:05:51;;;;;;;10.28;5.17;;;;;;;1.26;78.19;96282.28;1756570;82;21164;-89
2021/01/03 05:08:49;;;;;;;11.78;6.10;;;;;;;1.28;78.15;96278.17;1757369;81;21147;-89
2021/01/03 05:11:21;;;;;;;12.47;6.85;;;;;;;1.31;78.19;96274.58;1757259;82;21506;-89
2021/01/03 05:14:07;;;;;;;14.87;6.50;;;;;;;1.34;78.17;96266.80;1757268;82;21135;-89
2021/01/03 05:16:34;;;;;;;13.72;6.25;;;;;;;1.35;78.18;96272.30;1757068;82;21153;-89
2021/01/03 05:19:01;;;;;;;9.63;4.92;;;;;;;1.32;78.09;96271.46;1757054;81;21205;-88
2021/01/03 05:21:47;;;;;;;8.45;5.30;;;;;;;1.30;78.02;96283.44;1757195;82;21498;-89
2021/01/03 05:24:14;;;;;;;12.05;7.30;;;;;;;1.34;78.06;96295.02;1757127;82;21184;-89
2021/01/03 05:26:42;;;;;;;13.10;7.42;;;;;;;1.35;78.05;96308.86;1752517;82;21523;-88
2021/01/03 05:29:14;;;;;;;12.45;6.15;;;;;;;1.37;78.11;96303.69;1751574;81;21147;-88
2021/01/03 05:31:47;;;;;;;13.68;7.35;;;;;;;1.38;78.11;96303.97;1750432;82;21286;-88
2021/01/03 05:34:14;;;;;;;12.00;5.90;;;;;;;1.41;78.04;96302.75;1749783;82;21184;-88
2021/01/03 05:36:51;;;;;;;13.25;6.67;;;;;;;1.44;77.95;96286.11;1751631;82;21648;-88
2021/01/03 05:39:23;;;;;;;12.30;6.42;;;;;;;1.46;77.85;96278.04;1751500;81;21145;-88
2021/01/03 05:41:58;;;;;;;12.07;6.28;;;;;;;1.46;77.75;96271.51;1751581;82;21108;-88
2021/01/03 05:44:30;;;;;;;15.43;7.42;;;;;;;1.45;77.69;96283.78;1751407;82;21290;-88
2021/01/03 05:47:08;;;;;;;12.93;7.20;;;;;;;1.44;77.65;96285.31;1751657;82;21294;-89
2021/01/03 05:49:35;;;;;;;11.40;6.67;;;;;;;1.41;77.64;96274.81;1745695;81;21156;-88
2021/01/03 05:52:26;;;;;;;12.20;5.85;;;;;;;1.39;77.63;96275.53;1751476;82;21500;-88
2021/01/03 05:54:54;;;;;;;10.50;6.47;;;;;;;1.42;77.68;96278.22;1752041;82;21266;-88
2021/01/03 05:57:32;;;;;;;10.58;5.12;;;;;;;1.42;77.65;96288.67;1751614;82;21290;-89
2021/01/03 06:00:18;;;;;;;7.78;4.62;;;;;;;1.42;77.60;96284.75;1751665;81;21151;-89
2021/01/03 06:02:45;;;;;;;8.88;5.00;;;;;;;1.51;77.58;96274.22;1750383;82;21547;-88
2021/01/03 06:05:22;;;;;;;7.95;4.30;;;;;;;1.66;77.41;96267.22;1751574;81;21184;-89
2021/01/03 06:08:16;;;;;;;8.45;4.50;;;;;;;1.85;77.08;96267.88;1751598;82;21289;-88
2021/01/03 06:10:43;;;;;;;8.75;5.03;;;;;;;2.00;76.97;96285.17;1744282;82;21519;-89
2021/01/03 06:13:14;;;;;;;10.23;5.03;;;;;;;1.84;76.64;96297.66;1751514;82;21143;-89
2021/01/03 06:15:48;;;;;;;;;;;;;;;1.74;76.66;96295.10;1754202;82;21294;-89
2021/01/03 06:18:30;;;;;;;14.25;6.42;;;;;;;1.75;76.67;96294.59;1751569;81;20209;-89
2021/01/03 06:20:59;;;;;;;11.25;6.42;;;;;;;1.65;76.71;96284.71;1751375;82;21136;-89
2021/01/03 06:23:35;;;;;;;11.43;6.80;;;;;;;1.64;76.80;96291.47;1751819;81;21140;-89
2021/01/03 06:26:15;;;;;;;14.65;7.33;;;;;;;1.63;76.82;96292.50;1751456;82;21160;-89
2021/01/03 06:28:52;;;;;;;11.08;6.28;;;;;;;1.57;76.84;96290.30;1751735;81;21295;-89
2021/01/03 06:31:45;;;;;;;13.18;6.85;;;;;;;1.54;76.94;96292.04;1751516;82;21274;-89
2021/01/03 06:34:17;;;;;;;12.40;6.72;;;;;;;1.44;76.84;96298.38;1751520;82;21235;-89
2021/01/03 06:37:07;;;;;;;11.05;5.50;;;;;;;1.30;76.97;96287.36;1751486;82;21286;-89
2021/01/03 06:40:01;;;;;;;11.40;5.72;;;;;;;1.33;77.16;96281.67;1751977;81;21174;-89
2021/01/03 06:46:11;;;;;;;11.73;7.03;;;;;;;1.45;77.27;96269.41;1861961;76;28252;-88
2021/01/03 06:48:56;;;;;;;11.05;4.97;;;;;;;1.47;77.16;96257.42;1830025;77;21566;-89
2021/01/03 06:52:03;;;;;;;10.60;4.80;;;;;;;1.56;77.11;96264.41;1769465;81;21261;-89
2021/01/03 06:55:09;;;;;;;8.35;4.78;;;;;;;1.61;77.09;96262.69;1761892;81;21495;-88
2021/01/03 06:58:23;;;;;;;12.50;6.42;;;;;;;1.73;76.96;96256.14;1761927;81;21170;-89
2021/01/03 07:00:57;;;;;;;9.90;5.50;;;;;;;1.81;76.86;96261.50;1761230;81;21297;-89
2021/01/03 07:03:34;;;;;;;10.25;5.55;;;;;;;1.71;76.70;96247.74;1761861;81;21293;-89
2021/01/03 07:06:06;;;;;;;10.80;4.83;;;;;;;1.63;76.85;96250.19;1762024;81;21159;-89
2021/01/03 07:08:44;;;;;;;9.40;5.00;;;;;;;1.74;77.08;96251.98;1761862;81;21277;-89
2021/01/03 07:11:51;;;;;;;9.13;5.03;;;;;;;1.84;77.09;96251.92;1759654;81;21557;-87
2021/01/03 07:14:32;;;;;;;7.92;4.00;;;;;;;1.91;77.06;96244.72;1761771;81;21313;-88
2021/01/03 07:17:17;;;;;;;10.85;5.87;;;;;;;1.97;76.90;96239.38;1761839;81;21610;-89
2021/01/03 07:19:57;;;;;;;15.70;7.28;;;;;;;1.99;76.72;96232.61;1732997;82;21173;-89
2021/01/03 07:22:33;;;;;;;11.80;5.30;;;;;;;2.04;76.66;96226.16;1757472;82;21570;-88
2021/01/03 07:25:24;;;;;;;9.90;4.55;;;;;;;2.11;76.59;96217.64;1877963;76;23023;-87
2021/01/03 07:28:28;;;;;;;9.28;4.90;;;;;;;2.09;76.52;96221.01;1819355;79;21080;-88
2021/01/03 07:31:04;;;;;;;8.18;4.17;;;;;;;2.13;76.59;96216.92;1787384;80;21112;-89
2021/01/03 07:33:39;;;;;;;5.70;3.33;;;;;;;2.02;76.89;96215.94;1786044;80;21151;-89
2021/01/03 07:36:17;;;;;;;9.28;5.47;;;;;;;1.94;77.59;96220.73;1786357;80;21120;-89
2021/01/03 07:39:18;;;;;;;12.10;7.10;;;;;;;1.98;77.45;96228.41;1787512;80;21456;-89
2021/01/03 07:41:49;;;;;;;8.68;5.25;;;;;;;1.99;77.24;96233.91;1787334;80;21472;-88
2021/01/03 07:44:30;;;;;;;6.87;3.42;;;;;;;2.09;77.02;96238.00;1787491;80;21170;-89
2021/01/03 07:47:03;;;;;;;20.70;11.18;;;;;;;2.23;77.20;96246.36;1787301;80;21104;-89
2021/01/03 07:49:47;;;;;;;15.35;10.30;;;;;;;2.07;76.89;96256.55;1775075;80;21527;-88
2021/01/03 07:52:25;;;;;;;18.02;11.25;;;;;;;1.94;77.04;96256.02;1739761;82;21154;-88
2021/01/03 07:54:56;;;;;;;23.40;13.58;;;;;;;1.91;77.22;96259.09;1737401;82;21146;-89
2021/01/03 07:57:26;;;;;;;20.20;12.28;;;;;;;2.00;77.33;96254.59;1740138;82;21100;-88
2021/01/03 07:59:58;;;;;;;16.82;10.18;;;;;;;2.16;77.43;96249.13;1739825;82;21120;-89
2021/01/03 08:02:31;;;;;;;12.10;7.35;;;;;;;2.22;77.34;96236.94;1739972;82;21269;-88
2021/01/03 08:05:01;;;;;;;13.03;7.12;;;;;;;2.38;77.38;96244.81;1740067;82;21170;-88
2021/01/03 08:07:29;;;;;;;11.70;6.20;;;;;;;2.55;77.43;96247.48;1740012;82;21442;-89
2021/01/03 08:09:56;;;;;;;12.98;7.75;;;;;;;2.67;77.11;96252.14;1739775;82;21150;-88
2021/01/03 08:12:46;;;;;;;12.93;6.55;;;;;;;2.82;76.96;96256.03;1729158;82;21150;-89
2021/01/03 08:15:30;;;;;;;11.15;5.15;;;;;;;2.93;76.77;96257.24;1739941;82;21138;-89
2021/01/03 08:18:08;;;;;;;8.68;4.35;;;;;;;3.04;76.58;96264.75;1739765;82;21511;-89
2021/01/03 08:20:35;;;;;;;7.12;4.08;;;;;;;3.18;76.63;96254.73;1740311;80;21143;-89
2021/01/03 08:23:19;;;;;;;10.38;5.25;;;;;;;3.38;76.51;96263.39;1739602;82;21166;-89
2021/01/03 08:25:46;;;;;;;9.48;5.08;;;;;;;3.74;76.41;96268.09;1739921;82;21135;-89
2021/01/03 08:28:20;;;;;;;9.55;5.85;;;;;;;4.06;76.61;96270.84;1739720;82;21151;-89
2021/01/03 08:30:50;;;;;;;29.90;21.60;;;;;;;4.48;76.61;96272.87;1739988;82;21135;-90
2021/01/03 08:33:26;;;;;;;21.55;15.98;;;;;;;4.94;75.96;96274.10;1739979;82;21508;-90
2021/01/03 08:35:53;;;;;;;14.68;8.60;;;;;;;5.05;75.52;96274.42;1739411;82;21114;-90
2021/01/03 08:38:30;;;;;;;7.55;4.90;;;;;;;5.32;74.84;96274.37;1739374;82;21187;-90
2021/01/03 08:41:04;;;;;;;8.10;4.55;;;;;;;5.66;74.46;96268.80;1739491;82;21432;-90
2021/01/03 08:43:32;;;;;;;18.05;8.83;;;;;;;5.93;74.46;96270.81;1739140;82;21491;-90
2021/01/03 08:46:06;;;;;;;27.48;12.33;;;;;;;6.06;72.85;96256.92;1739188;82;21158;-90
2021/01/03 08:48:33;;;;;;;28.83;13.75;;;;;;;6.11;73.21;96260.36;1739291;82;21208;-90
2021/01/03 08:51:17;;;;;;;26.57;13.15;;;;;;;6.39;73.67;96263.08;1739732;80;21523;-90
2021/01/03 08:53:44;;;;;;;22.15;12.58;;;;;;;6.58;73.30;96261.26;1739332;82;21100;-89
2021/01/03 08:56:19;;;;;;;59.08;20.50;;;;;;;6.45;72.59;96265.19;1739239;82;21151;-90
2021/01/03 08:58:46;;;;;;;31.95;15.80;;;;;;;6.45;72.50;96263.86;1739189;82;21514;-89
2021/01/03 09:01:24;;;;;;;323.30;79.45;;;;;;;6.36;72.08;96266.23;1739167;82;21142;-90
2021/01/03 09:03:55;;;;;;;30.32;14.65;;;;;;;6.28;71.90;96264.61;1739137;82;21547;-90
2021/01/03 09:06:24;;;;;;;15.53;9.43;;;;;;;5.92;70.20;96270.55;1739495;82;21155;-90
2021/01/03 09:08:53;;;;;;;16.32;8.05;;;;;;;5.69;71.41;96281.44;1739251;82;21183;-90
2021/01/03 09:11:31;;;;;;;18.12;9.83;;;;;;;5.69;71.75;96285.38;1739363;82;21523;-91
2021/01/03 09:14:07;;;;;;;23.45;11.70;;;;;;;5.70;71.66;96286.17;1739161;82;21510;-90
2021/01/03 09:17:00;;;;;;;22.25;11.73;;;;;;;5.64;71.79;96282.22;1739208;82;21125;-90
2021/01/03 09:20:22;;;;;;;20.72;11.28;;;;;;;5.60;71.48;96290.32;1740188;80;21176;-90
2021/01/03 09:22:53;;;;;;;21.15;10.35;;;;;;;5.50;71.44;96299.48;1739136;82;21130;-90
2021/01/03 09:25:32;;;;;;;18.92;9.95;;;;;;;5.31;71.13;96293.81;1739134;82;21499;-90
2021/01/03 09:28:22;;;;;;;20.37;11.55;;;;;;;5.24;70.87;96284.05;1739215;82;21277;-90
2021/01/03 09:30:49;;;;;;;;;;;;;;;5.22;71.09;96282.72;1691144;82;21178;-90
2021/01/03 09:33:27;;;;;;;18.87;11.12;;;;;;;5.30;71.51;96275.14;1739115;82;20114;-90
2021/01/03 09:36:38;;;;;;;25.75;13.15;;;;;;;5.44;71.60;96270.77;1739212;82;21142;-90
2021/01/03 09:39:22;;;;;;;21.82;11.70;;;;;;;5.50;71.46;96272.40;1739049;82;21146;-90
2021/01/03 09:42:31;;;;;;;18.40;10.35;;;;;;;5.82;71.72;96277.56;1739157;82;21166;-90
2021/01/03 09:45:22;;;;;;;16.20;8.20;;;;;;;6.12;70.95;96262.46;1739146;82;21518;-90
2021/01/03 09:47:50;;;;;;;19.32;9.80;;;;;;;6.27;70.67;96274.36;1737596;82;21535;-90
2021/01/03 09:50:41;;;;;;;21.20;11.45;;;;;;;6.36;70.59;96276.77;1739845;80;21115;-90
2021/01/03 09:53:23;;;;;;;19.40;10.05;;;;;;;6.38;70.42;96281.23;1739176;82;21147;-90
2021/01/03 09:56:11;;;;;;;18.20;10.30;;;;;;;6.33;70.30;96282.52;1739295;82;21171;-90
2021/01/03 09:58:42;;;;;;;21.23;12.40;;;;;;;6.25;69.41;96275.93;1741759;81;21159;-91
2021/01/03 10:01:31;;;;;;;20.43;11.83;;;;;;;6.21;70.23;96280.14;1739307;82;21131;-90
2021/01/03 10:04:24;;;;;;;41.90;22.53;;;;;;;6.21;70.52;96270.92;1739493;82;21516;-90
2021/01/03 10:07:15;;;;;;;40.03;22.45;;;;;;;6.23;70.75;96264.09;1772375;81;21855;-90
2021/01/03 10:10:02;;;;;;;30.05;20.23;;;;;;;6.08;70.36;96269.30;1739195;81;21528;-91
2021/01/03 10:12:37;;;;;;;35.95;21.33;;;;;;;6.03;70.77;96265.31;1739332;82;21483;-91
2021/01/03 10:15:26;;;;;;;37.48;24.10;;;;;;;6.04;70.86;96257.68;1739196;82;21135;-90
2021/01/03 10:18:01;;;;;;;37.73;22.98;;;;;;;5.94;69.94;96260.56;1739155;82;21253;-90
2021/01/03 10:20:48;;;;;;;33.28;19.70;;;;;;;5.80;70.19;96272.56;1739796;80;21099;-90
2021/01/03 10:23:36;;;;;;;35.17;21.10;;;;;;;5.78;70.27;96272.03;1739135;82;21169;-90
2021/01/03 10:26:20;;;;;;;30.48;19.60;;;;;;;5.79;70.83;96265.72;1731517;82;21131;-91
2021/01/03 10:28:48;;;;;;;32.00;19.30;;;;;;;5.83;71.11;96273.89;1739139;82;21583;-90
2021/01/03 10:31:16;;;;;;;33.13;19.42;;;;;;;5.82;71.12;96267.84;1739188;82;21107;-90
2021/01/03 10:33:45;;;;;;;55.58;32.00;;;;;;;5.77;70.94;96271.77;1739217;82;21115;-90
2021/01/03 10:36:24;;;;;;;40.15;22.32;;;;;;;5.73;71.10;96261.98;1739160;82;21218;-89
2021/01/03 10:38:51;;;;;;;36.33;23.80;;;;;;;5.74;71.09;96256.47;1739158;82;21193;-89
2021/01/03 10:41:19;;;;;;;29.65;19.75;;;;;;;5.74;71.23;96251.21;1739176;82;21166;-90
2021/01/03 10:43:47;;;;;;;28.65;18.37;;;;;;;5.78;71.37;96250.98;1739228;82;21170;-90
2021/01/03 10:46:17;;;;;;;36.28;20.95;;;;;;;5.83;71.75;96254.95;1739210;82;21115;-90
2021/01/03 10:48:45;;;;;;;33.25;19.37;;;;;;;5.76;71.22;96247.80;1739268;82;21299;-90
2021/01/03 10:51:12;;;;;;;39.08;21.70;;;;;;;5.68;70.95;96246.20;1739802;80;21143;-90
2021/01/03 10:53:40;;;;;;;34.88;21.73;;;;;;;5.58;71.17;96248.24;1739230;82;21191;-90
2021/01/03 10:56:09;;;;;;;35.83;20.40;;;;;;;5.57;71.49;96243.50;1739203;82;21142;-89
2021/01/03 10:58:41;;;;;;;39.08;22.40;;;;;;;5.59;71.59;96243.25;1739079;82;21154;-90
2021/01/03 11:01:08;;;;;;;30.92;18.52;;;;;;;5.54;71.38;96234.03;1739125;82;21174;-90
2021/01/03 11:03:35;;;;;;;36.83;22.65;;;;;;;5.51;71.65;96240.59;1739167;82;21479;-90
2021/01/03 11:06:02;;;;;;;39.58;23.95;;;;;;;5.46;71.96;96237.91;1739226;82;21103;-90
2021/01/03 11:08:31;;;;;;;34.40;21.33;;;;;;;5.36;71.82;96242.61;1739125;82;21460;-90
2021/01/03 11:10:59;;;;;;;34.53;21.33;;;;;;;5.31;72.01;96245.19;1739040;82;21147;-90
2021/01/03 11:13:26;;;;;;;32.88;20.08;;;;;;;5.25;71.97;96246.21;1739343;82;21175;-90
2021/01/03 11:15:53;;;;;;;30.37;18.32;;;;;;;5.26;72.24;96245.16;1739190;82;21123;-90
2021/01/03 11:18:22;;;;;;;28.30;17.70;;;;;;;5.26;71.89;96242.53;1739179;82;21158;-90
2021/01/03 11:20:50;;;;;;;26.17;16.07;;;;;;;5.30;71.55;96246.23;1739585;80;21154;-90
2021/01/03 11:23:19;;;;;;;22.42;13.28;;;;;;;5.33;71.38;96239.67;1739226;82;21514;-90
2021/01/03 11:25:48;;;;;;;24.27;15.68;;;;;;;5.36;70.87;96229.99;1739623;82;21499;-90
2021/01/03 11:28:15;;;;;;;30.30;16.75;;;;;;;5.38;71.14;96238.41;1739900;82;21180;-90
2021/01/03 11:30:42;;;;;;;36.03;21.15;;;;;;;5.41;71.24;96244.99;1739918;82;21171;-90
2021/01/03 11:33:10;;;;;;;38.15;23.45;;;;;;;5.40;71.27;96244.20;1739968;82;21150;-90
2021/01/03 11:35:37;;;;;;;29.57;16.77;;;;;;;5.41;71.41;96237.89;1739901;82;21135;-90
2021/01/03 11:38:05;;;;;;;32.78;19.65;;;;;;;5.42;71.20;96242.11;1739914;82;21146;-90
2021/01/03 11:40:32;;;;;;;24.67;15.75;;;;;;;5.43;71.42;96237.64;1739935;82;21135;-90
2021/01/03 11:43:00;;;;;;;27.52;15.28;;;;;;;5.45;71.19;96245.53;1740005;82;21309;-90
2021/01/03 11:45:27;;;;;;;27.82;15.23;;;;;;;5.43;70.95;96246.31;1740031;82;21261;-90
2021/01/03 11:47:54;;;;;;;28.50;17.00;;;;;;;5.44;71.05;96244.48;1740235;82;21300;-90
2021/01/03 11:50:24;;;;;;;33.45;17.73;;;;;;;5.43;71.24;96248.16;1740340;80;21550;-90
2021/01/03 11:52:51;;;;;;;31.90;18.82;;;;;;;5.42;71.45;96255.25;1740232;82;21151;-90
2021/01/03 11:55:20;;;;;;;30.90;17.82;;;;;;;5.42;71.47;96253.94;1739833;82;21147;-91
2021/01/03 11:57:48;;;;;;;36.63;20.17;;;;;;;5.43;71.53;96256.05;1740188;82;21289;-90
2021/01/03 12:00:17;;;;;;;32.42;19.23;;;;;;;5.42;71.53;96259.20;1739828;82;21166;-90
2021/01/03 12:02:45;;;;;;;95.40;46.55;;;;;;;5.43;71.34;96256.05;1740050;82;21495;-90
2021/01/03 12:05:17;;;;;;;75.35;38.88;;;;;;;5.45;71.48;96252.11;1740063;82;21289;-90
2021/01/03 12:07:45;;;;;;;96.12;45.45;;;;;;;5.45;71.52;96257.36;1739994;82;21167;-90
2021/01/03 12:10:13;;;;;;;75.15;38.40;;;;;;;5.48;71.52;96257.38;1739826;82;21154;-90
2021/01/03 12:12:40;;;;;;;57.15;28.55;;;;;;;5.50;71.67;96256.63;1740281;82;21301;-90